createdAt,value
2022-10-11T00:01:26.110Z,6.78
2022-10-11T00:03:52.871Z,13.73
2022-10-11T00:06:19.496Z,7.22
2022-10-11T00:08:46.120Z,11.23
2022-10-11T00:11:12.842Z,11.57
2022-10-11T00:13:39.551Z,8.27
2022-10-11T00:16:14.106Z,11.23
2022-10-11T00:18:41.151Z,6.80
2022-10-11T00:21:11.948Z,9.85
2022-10-11T00:23:39.024Z,11.50
2022-10-11T00:26:08.977Z,13.38
2022-10-11T00:28:36.801Z,10.02
2022-10-11T00:31:08.051Z,8.68
2022-10-11T00:33:35.147Z,14.88
2022-10-11T00:36:02.191Z,7.28
2022-10-11T00:38:31.994Z,8.30
2022-10-11T00:41:00.257Z,8.13
2022-10-11T00:43:29.899Z,7.25
2022-10-11T00:45:56.699Z,12.73
2022-10-11T00:48:39.907Z,7.72
2022-10-11T00:51:15.531Z,7.00
2022-10-11T00:53:43.295Z,5.47
2022-10-11T00:56:17.034Z,7.43
2022-10-11T00:58:44.125Z,5.50
2022-10-11T01:01:11.046Z,8.48
2022-10-11T01:03:39.100Z,6.55
2022-10-11T01:06:06.494Z,7.30
2022-10-11T01:08:34.100Z,5.95
2022-10-11T01:11:01.028Z,5.15
2022-10-11T01:13:51.487Z,5.22
2022-10-11T01:16:26.834Z,5.93
2022-10-11T01:19:36.102Z,3.63
2022-10-11T01:22:26.151Z,3.92
2022-10-11T01:25:01.767Z,5.85
2022-10-11T01:27:39.412Z,5.78
2022-10-11T01:30:19.783Z,6.70
2022-10-11T01:32:54.191Z,5.25
2022-10-11T01:35:41.348Z,2.58
2022-10-11T01:38:20.910Z,6.68
2022-10-11T01:41:12.129Z,9.18
2022-10-11T01:43:40.748Z,5.25
2022-10-11T01:46:09.362Z,9.45
2022-10-11T01:48:55.079Z,6.22
2022-10-11T01:51:25.270Z,5.63
2022-10-11T01:53:59.955Z,8.90
2022-10-11T01:56:56.476Z,7.43
2022-10-11T01:59:41.952Z,5.45
2022-10-11T02:02:32.956Z,7.55
2022-10-11T02:05:24.497Z,3.38
2022-10-11T02:08:00.550Z,4.95
2022-10-11T02:10:39.722Z,3.00
2022-10-11T02:13:12.957Z,8.32
2022-10-11T02:15:42.292Z,7.55
2022-10-11T02:18:14.721Z,7.18
2022-10-11T02:20:44.280Z,6.78
2022-10-11T02:23:16.802Z,6.65
2022-10-11T02:25:45.731Z,6.68
2022-10-11T02:28:17.556Z,7.30
2022-10-11T02:30:47.617Z,8.03
2022-10-11T02:33:20.218Z,8.63
2022-10-11T02:38:21.920Z,6.65
2022-10-11T02:43:24.231Z,10.10
2022-10-11T02:46:00.877Z,5.32
2022-10-11T02:48:29.285Z,4.13
2022-10-11T02:50:57.349Z,7.50
2022-10-11T02:53:25.662Z,11.73
2022-10-11T02:55:54.016Z,6.95
2022-10-11T02:58:21.905Z,8.32
2022-10-11T03:00:49.307Z,6.25
2022-10-11T03:03:16.035Z,12.85
2022-10-11T03:05:43.986Z,4.07
2022-10-11T03:08:15.323Z,8.90
2022-10-11T03:10:42.910Z,6.00
2022-10-11T03:13:09.685Z,6.55
2022-10-11T03:15:36.415Z,8.20
2022-10-11T03:18:03.333Z,5.63
2022-10-11T03:20:29.991Z,8.50
2022-10-11T03:22:56.811Z,3.72
2022-10-11T03:25:23.462Z,8.48
2022-10-11T03:27:50.435Z,9.95
2022-10-11T03:30:18.508Z,6.32
2022-10-11T03:32:45.409Z,7.63
2022-10-11T03:35:12.218Z,7.68
2022-10-11T03:37:39.151Z,8.63
2022-10-11T03:40:08.499Z,7.70
2022-10-11T03:42:36.480Z,4.57
2022-10-11T03:45:04.906Z,7.05
2022-10-11T03:47:32.487Z,5.13
2022-10-11T03:49:59.215Z,8.18
2022-10-11T03:52:25.913Z,7.38
2022-10-11T03:54:52.746Z,9.23
2022-10-11T03:57:20.367Z,6.45
2022-10-11T03:59:48.245Z,10.23
2022-10-11T04:02:15.279Z,7.45
2022-10-11T04:04:42.175Z,5.30
2022-10-11T04:07:09.554Z,8.05
2022-10-11T04:09:36.408Z,8.13
2022-10-11T04:12:03.864Z,6.95
2022-10-11T04:14:30.570Z,8.27
2022-10-11T04:17:00.271Z,8.48
2022-10-11T04:19:27.685Z,8.48
2022-10-11T04:21:54.371Z,13.00
2022-10-11T04:24:21.087Z,6.97
2022-10-11T04:26:48.507Z,10.60
2022-10-11T04:29:15.357Z,4.78
2022-10-11T04:31:41.966Z,10.98
2022-10-11T04:34:08.607Z,10.10
2022-10-11T04:36:35.535Z,10.57
2022-10-11T04:39:03.467Z,11.40
2022-10-11T04:41:30.083Z,8.65
2022-10-11T04:43:56.722Z,8.23
2022-10-11T04:46:24.378Z,8.75
2022-10-11T04:48:51.815Z,6.85
2022-10-11T04:51:19.000Z,7.43
2022-10-11T04:53:45.931Z,8.25
2022-10-11T04:56:14.788Z,7.28
2022-10-11T04:58:41.878Z,10.40
2022-10-11T05:01:10.010Z,11.40
2022-10-11T05:03:36.946Z,9.95
2022-10-11T05:06:06.119Z,13.02
2022-10-11T05:08:33.660Z,7.38
2022-10-11T05:11:01.450Z,8.52
2022-10-11T05:13:29.208Z,7.57
2022-10-11T05:15:57.312Z,7.70
2022-10-11T05:18:24.478Z,8.75
2022-10-11T05:21:14.280Z,11.20
2022-10-11T05:23:41.126Z,7.55
2022-10-11T05:26:08.437Z,10.00
2022-10-11T05:28:35.471Z,14.50
2022-10-11T05:31:02.135Z,14.60
2022-10-11T05:33:28.803Z,11.70
2022-10-11T05:35:55.427Z,8.68
2022-10-11T05:38:23.062Z,9.73
2022-10-11T05:40:49.810Z,11.65
2022-10-11T05:43:16.573Z,14.05
2022-10-11T05:45:44.468Z,17.60
2022-10-11T05:48:11.704Z,18.60
2022-10-11T05:50:38.856Z,17.25
2022-10-11T05:53:06.186Z,8.40
2022-10-11T05:55:41.116Z,8.70
2022-10-11T05:58:10.817Z,11.48
2022-10-11T06:00:38.242Z,9.32
2022-10-11T06:03:07.367Z,7.85
2022-10-11T06:05:35.248Z,10.02
2022-10-11T06:08:04.471Z,8.10
2022-10-11T06:10:31.400Z,11.93
2022-10-11T06:12:58.321Z,13.38
2022-10-11T06:15:25.161Z,10.23
2022-10-11T06:17:52.895Z,11.75
2022-10-11T06:20:19.744Z,9.50
2022-10-11T06:22:46.376Z,10.18
2022-10-11T06:25:13.065Z,13.05
2022-10-11T06:27:39.689Z,12.65
2022-10-11T06:30:07.691Z,12.48
2022-10-11T06:32:34.556Z,15.82
2022-10-11T06:35:03.296Z,15.32
2022-10-11T06:37:30.245Z,15.02
2022-10-11T06:39:57.166Z,10.05
2022-10-11T06:42:24.763Z,10.50
2022-10-11T06:44:51.794Z,18.20
2022-10-11T06:47:18.518Z,15.50
2022-10-11T06:49:45.323Z,11.43
2022-10-11T06:52:12.041Z,11.40
2022-10-11T06:54:43.925Z,18.23
2022-10-11T06:57:11.849Z,10.05
2022-10-11T06:59:38.667Z,9.90
2022-10-11T07:02:05.412Z,13.80
2022-10-11T07:04:34.008Z,12.93
2022-10-11T07:07:01.106Z,12.32
2022-10-11T07:09:27.784Z,11.35
2022-10-11T07:11:54.932Z,12.02
2022-10-11T07:14:21.572Z,16.60
2022-10-11T07:16:48.239Z,9.93
2022-10-11T07:19:14.982Z,9.40
2022-10-11T07:21:41.741Z,9.70
2022-10-11T07:24:08.766Z,16.67
2022-10-11T07:26:38.635Z,10.63
2022-10-11T07:29:07.750Z,8.52
2022-10-11T07:31:38.212Z,6.60
2022-10-11T07:34:04.895Z,11.43
2022-10-11T07:36:31.639Z,8.07
2022-10-11T07:38:58.637Z,11.45
2022-10-11T07:41:25.292Z,11.02
2022-10-11T07:43:52.282Z,12.32
2022-10-11T07:46:19.078Z,12.98
2022-10-11T07:48:45.989Z,11.18
2022-10-11T07:51:18.045Z,11.70
2022-10-11T07:53:46.927Z,4.88
2022-10-11T07:56:16.028Z,7.03
2022-10-11T07:58:43.268Z,13.18
2022-10-11T08:01:11.168Z,8.50
2022-10-11T08:03:38.670Z,10.13
2022-10-11T08:06:09.133Z,14.32
2022-10-11T08:08:37.005Z,10.25
2022-10-11T08:11:04.260Z,12.20
2022-10-11T08:13:31.377Z,16.45
2022-10-11T08:15:58.483Z,11.43
2022-10-11T08:18:25.948Z,12.48
2022-10-11T08:20:52.644Z,11.32
2022-10-11T08:23:20.061Z,14.93
2022-10-11T08:25:48.250Z,9.82
2022-10-11T08:28:17.664Z,6.10
2022-10-11T08:30:52.289Z,10.85
2022-10-11T08:33:21.458Z,10.52
2022-10-11T08:35:49.276Z,10.00
2022-10-11T08:38:16.562Z,15.75
2022-10-11T08:40:55.241Z,11.75
2022-10-11T08:44:03.550Z,10.27
2022-10-11T08:46:33.208Z,12.90
2022-10-11T08:49:01.656Z,12.07
2022-10-11T08:51:33.675Z,14.55
2022-10-11T08:54:16.310Z,9.10
2022-10-11T08:59:11.204Z,13.77
2022-10-11T09:01:44.672Z,10.80
2022-10-11T09:04:16.083Z,11.05
2022-10-11T09:07:15.161Z,9.00
2022-10-11T09:10:06.499Z,10.48
2022-10-11T09:12:48.879Z,8.63
2022-10-11T09:15:30.572Z,10.68
2022-10-11T09:18:09.767Z,10.68
2022-10-11T09:20:49.769Z,10.93
2022-10-11T09:23:39.870Z,9.57
2022-10-11T09:26:31.425Z,10.48
2022-10-11T09:29:16.956Z,9.05
2022-10-11T09:31:53.509Z,10.23
2022-10-11T09:34:23.478Z,16.63
2022-10-11T09:37:12.119Z,6.72
2022-10-11T09:39:45.960Z,13.63
2022-10-11T09:42:12.800Z,12.38
2022-10-11T09:44:45.945Z,7.65
2022-10-11T09:47:33.020Z,7.85
2022-10-11T09:50:06.845Z,7.72
2022-10-11T09:52:33.836Z,7.20
2022-10-11T09:55:02.895Z,9.75
2022-10-11T09:57:32.002Z,10.18
2022-10-11T10:00:17.587Z,9.13
2022-10-11T10:02:51.311Z,7.90
2022-10-11T10:05:18.196Z,13.50
2022-10-11T10:08:22.965Z,5.95
2022-10-11T10:11:00.216Z,8.82
2022-10-11T10:13:52.420Z,8.88
2022-10-11T10:16:30.831Z,6.78
2022-10-11T10:19:04.106Z,8.70
2022-10-11T10:21:37.144Z,8.38
2022-10-11T10:24:20.696Z,15.65
2022-10-11T10:27:08.505Z,7.78
2022-10-11T10:29:36.915Z,7.72
2022-10-11T10:32:14.674Z,12.30
2022-10-11T10:35:16.638Z,10.07
2022-10-11T10:38:03.156Z,9.00
2022-10-11T10:41:02.970Z,9.32
2022-10-11T10:43:34.443Z,9.70
2022-10-11T10:46:34.325Z,10.40
2022-10-11T10:49:51.842Z,10.05
2022-10-11T10:52:48.781Z,8.77
2022-10-11T10:55:34.362Z,7.88
2022-10-11T10:58:18.948Z,13.15
2022-10-11T11:00:52.350Z,8.00
2022-10-11T11:03:22.139Z,10.20
2022-10-11T11:06:02.124Z,8.65
2022-10-11T11:08:47.892Z,11.55
2022-10-11T11:11:29.634Z,9.85
2022-10-11T11:17:08.423Z,7.30
2022-10-11T11:19:51.210Z,9.40
2022-10-11T11:22:33.045Z,10.32
2022-10-11T11:24:59.730Z,10.25
2022-10-11T11:27:26.363Z,8.32
2022-10-11T11:29:58.133Z,9.57
2022-10-11T11:32:59.500Z,8.15
2022-10-11T11:35:29.147Z,9.63
2022-10-11T11:38:06.582Z,10.77
2022-10-11T11:40:39.437Z,11.25
2022-10-11T11:43:17.589Z,10.95
2022-10-11T11:46:01.440Z,11.48
2022-10-11T11:48:28.379Z,10.02
2022-10-11T11:51:01.107Z,12.23
2022-10-11T11:53:44.688Z,9.68
2022-10-11T11:56:22.982Z,7.45
2022-10-11T11:58:59.599Z,11.55
2022-10-11T12:01:39.414Z,11.48
2022-10-11T12:04:28.465Z,9.25
2022-10-11T12:07:19.892Z,9.77
2022-10-11T12:09:50.861Z,13.23
2022-10-11T12:12:37.703Z,13.50
2022-10-11T12:15:22.312Z,9.68
2022-10-11T12:17:55.378Z,5.97
2022-10-11T12:20:27.240Z,10.30
2022-10-11T12:22:59.914Z,13.75
2022-10-11T12:25:26.823Z,15.65
2022-10-11T12:27:56.291Z,14.02
2022-10-11T12:30:44.644Z,14.57
2022-10-11T12:33:22.311Z,7.88
2022-10-11T12:35:55.109Z,7.53
2022-10-11T12:38:28.917Z,9.75
2022-10-11T12:41:16.761Z,11.48
2022-10-11T12:43:49.230Z,7.32
2022-10-11T12:46:33.784Z,10.70
2022-10-11T12:49:24.307Z,9.55
2022-10-11T12:52:15.699Z,10.90
2022-10-11T12:55:20.398Z,13.00
2022-10-11T12:58:07.618Z,10.02
2022-10-11T13:00:40.417Z,10.18
2022-10-11T13:03:32.499Z,8.73
2022-10-11T13:08:39.181Z,7.57
2022-10-11T13:11:11.646Z,5.82
2022-10-11T13:13:54.088Z,7.78
2022-10-11T13:16:25.341Z,10.77
2022-10-11T13:18:59.594Z,11.20
2022-10-11T13:21:54.781Z,7.63
2022-10-11T13:24:23.379Z,7.72
2022-10-11T13:26:52.357Z,9.23
2022-10-11T13:29:30.693Z,5.70
2022-10-11T13:31:58.470Z,6.07
2022-10-11T13:34:25.263Z,10.95
2022-10-11T13:36:57.119Z,6.97
2022-10-11T13:39:34.447Z,5.95
2022-10-11T13:42:12.004Z,8.00
2022-10-11T13:44:39.519Z,7.32
2022-10-11T13:47:06.652Z,14.32
2022-10-11T13:49:39.941Z,9.75
2022-10-11T13:52:19.259Z,6.57
2022-10-11T13:54:56.188Z,14.27
2022-10-11T13:57:44.806Z,5.00
2022-10-11T14:00:14.544Z,8.45
2022-10-11T14:03:13.171Z,10.02
2022-10-11T14:05:52.205Z,6.53
2022-10-11T14:08:30.392Z,9.90
2022-10-11T14:11:01.322Z,7.93
2022-10-11T14:13:34.673Z,10.30
2022-10-11T14:16:21.654Z,10.07
2022-10-11T14:19:07.843Z,13.73
2022-10-11T14:21:46.597Z,7.45
2022-10-11T14:24:14.521Z,10.52
2022-10-11T14:26:53.363Z,8.13
2022-10-11T14:29:26.021Z,6.40
2022-10-11T14:32:02.909Z,11.25
2022-10-11T14:34:31.046Z,11.75
2022-10-11T14:36:57.694Z,6.97
2022-10-11T14:39:27.555Z,10.80
2022-10-11T14:41:54.575Z,11.57
2022-10-11T14:44:21.923Z,9.25
2022-10-11T14:46:50.031Z,9.57
2022-10-11T14:49:18.566Z,10.48
2022-10-11T14:51:47.318Z,10.05
2022-10-11T14:54:16.366Z,13.70
2022-10-11T14:56:43.110Z,6.55
2022-10-11T14:59:14.392Z,8.20
2022-10-11T15:01:41.188Z,12.00
2022-10-11T15:04:07.852Z,20.85
2022-10-11T15:06:38.504Z,17.17
2022-10-11T15:09:06.884Z,15.70
2022-10-11T15:11:33.804Z,20.05
2022-10-11T15:14:00.676Z,20.08
2022-10-11T15:16:27.355Z,24.00
2022-10-11T15:18:53.994Z,11.10
2022-10-11T15:21:23.636Z,7.57
2022-10-11T15:23:51.792Z,11.77
2022-10-11T15:26:26.615Z,17.13
2022-10-11T15:28:56.136Z,18.80
2022-10-11T15:31:23.716Z,16.95
2022-10-11T15:33:50.465Z,12.30
2022-10-11T15:36:20.352Z,8.98
2022-10-11T15:38:47.887Z,14.07
2022-10-11T15:41:16.231Z,17.98
2022-10-11T15:43:44.392Z,12.32
2022-10-11T15:46:17.703Z,13.38
2022-10-11T15:48:45.614Z,14.95
2022-10-11T15:51:12.462Z,14.75
2022-10-11T15:53:39.332Z,12.25
2022-10-11T15:56:09.502Z,16.50
2022-10-11T15:58:39.312Z,14.02
2022-10-11T16:01:09.324Z,15.45
2022-10-11T16:03:36.387Z,16.25
2022-10-11T16:06:05.374Z,12.52
2022-10-11T16:08:33.775Z,16.95
2022-10-11T16:11:01.116Z,10.55
2022-10-11T16:13:28.044Z,15.75
2022-10-11T16:15:55.213Z,11.98
2022-10-11T16:18:22.587Z,17.45
2022-10-11T16:20:51.962Z,12.88
2022-10-11T16:23:21.090Z,9.98
2022-10-11T16:26:02.070Z,13.40
2022-10-11T16:28:29.657Z,12.73
2022-10-11T16:30:56.819Z,15.02
2022-10-11T16:33:24.072Z,16.48
2022-10-11T16:35:51.132Z,9.68
2022-10-11T16:38:17.998Z,15.90
2022-10-11T16:40:44.800Z,16.77
2022-10-11T16:43:11.767Z,12.57
2022-10-11T16:45:38.511Z,15.95
2022-10-11T16:48:05.596Z,18.45
2022-10-11T16:50:36.968Z,16.33
2022-10-11T16:53:06.479Z,17.40
2022-10-11T16:55:33.157Z,15.52
2022-10-11T16:57:59.980Z,12.82
2022-10-11T17:00:26.796Z,13.95
2022-10-11T17:02:53.563Z,12.00
2022-10-11T17:05:20.282Z,14.75
2022-10-11T17:07:47.109Z,15.50
2022-10-11T17:10:13.964Z,13.48
2022-10-11T17:12:40.666Z,14.55
2022-10-11T17:15:10.449Z,12.57
2022-10-11T17:17:37.066Z,15.25
2022-10-11T17:20:04.132Z,20.05
2022-10-11T17:22:30.820Z,18.48
2022-10-11T17:24:57.480Z,20.05
2022-10-11T17:27:24.134Z,17.35
2022-10-11T17:29:50.797Z,17.23
2022-10-11T17:32:17.507Z,16.70
2022-10-11T17:34:44.483Z,14.30
2022-10-11T17:37:12.538Z,17.50
2022-10-11T17:39:39.494Z,18.90
2022-10-11T17:42:07.651Z,19.67
2022-10-11T17:44:35.596Z,23.30
2022-10-11T17:47:02.967Z,24.13
2022-10-11T17:49:29.991Z,20.58
2022-10-11T17:51:56.771Z,25.70
2022-10-11T17:54:23.991Z,24.25
2022-10-11T17:56:50.689Z,30.75
2022-10-11T17:59:21.276Z,27.30
2022-10-11T18:01:49.160Z,26.83
2022-10-11T18:04:16.919Z,23.45
2022-10-11T18:06:45.847Z,27.40
2022-10-11T18:09:14.101Z,23.88
2022-10-11T18:11:41.076Z,21.08
2022-10-11T18:14:07.873Z,22.45
2022-10-11T18:16:35.886Z,22.60
2022-10-11T18:19:04.866Z,29.95
2022-10-11T18:21:34.658Z,25.23
2022-10-11T18:24:03.757Z,23.65
2022-10-11T18:26:31.042Z,23.45
2022-10-11T18:28:58.423Z,26.85
2022-10-11T18:31:27.778Z,26.88
2022-10-11T18:33:55.136Z,20.27
2022-10-11T18:36:25.013Z,25.92
2022-10-11T18:38:57.909Z,19.98
2022-10-11T18:41:30.539Z,25.77
2022-10-11T18:44:00.315Z,29.08
2022-10-11T18:46:27.510Z,32.60
2022-10-11T18:48:56.434Z,29.05
2022-10-11T18:51:28.703Z,25.45
2022-10-11T18:53:58.492Z,33.28
2022-10-11T18:56:28.245Z,31.88
2022-10-11T18:58:57.188Z,33.05
2022-10-11T19:01:29.838Z,29.95
2022-10-11T19:03:59.240Z,28.23
2022-10-11T19:06:30.424Z,24.67
2022-10-11T19:09:01.422Z,26.67
2022-10-11T19:11:28.715Z,28.63
2022-10-11T19:14:00.862Z,27.10
2022-10-11T19:16:29.687Z,25.85
2022-10-11T19:18:57.472Z,25.40
2022-10-11T19:21:24.805Z,31.02
2022-10-11T19:23:52.390Z,42.30
2022-10-11T19:26:27.139Z,35.65
2022-10-11T19:29:02.617Z,33.08
2022-10-11T19:31:30.623Z,31.73
2022-10-11T19:33:58.044Z,23.00
2022-10-11T19:36:25.407Z,21.02
2022-10-11T19:38:56.347Z,20.50
2022-10-11T19:41:25.548Z,20.27
2022-10-11T19:43:52.703Z,23.35
2022-10-11T19:46:44.422Z,22.15
2022-10-11T19:49:08.442Z,20.88
2022-10-11T19:51:37.283Z,19.02
2022-10-11T19:54:07.420Z,20.60
2022-10-11T19:56:37.338Z,21.92
2022-10-11T19:59:06.319Z,11.60
2022-10-11T20:01:34.453Z,16.52
2022-10-11T20:04:03.913Z,16.63
2022-10-11T20:06:37.199Z,20.58
2022-10-11T20:09:28.098Z,14.48
2022-10-11T20:11:52.470Z,18.65
2022-10-11T20:14:19.276Z,20.23
2022-10-11T20:16:46.100Z,18.60
2022-10-11T20:19:12.839Z,33.33
2022-10-11T20:21:40.771Z,28.45
2022-10-11T20:24:08.688Z,34.28
2022-10-11T20:26:35.506Z,25.27
2022-10-11T20:29:02.317Z,16.35
2022-10-11T20:31:31.784Z,17.33
2022-10-11T20:34:01.655Z,14.48
2022-10-11T20:36:30.302Z,17.40
2022-10-11T20:38:58.651Z,15.93
2022-10-11T20:41:28.598Z,14.68
2022-10-11T20:43:56.585Z,12.32
2022-10-11T20:46:26.731Z,11.00
2022-10-11T20:49:01.756Z,11.65
2022-10-11T20:51:31.016Z,13.95
2022-10-11T20:53:58.904Z,16.80
2022-10-11T20:56:25.695Z,12.15
2022-10-11T20:58:54.596Z,11.70
2022-10-11T21:01:25.907Z,15.73
2022-10-11T21:03:53.309Z,13.60
2022-10-11T21:06:20.461Z,16.27
2022-10-11T21:08:47.085Z,18.70
2022-10-11T21:11:13.741Z,15.35
2022-10-11T21:13:40.731Z,14.80
2022-10-11T21:16:16.025Z,11.57
2022-10-11T21:18:43.105Z,14.32
2022-10-11T21:21:14.337Z,16.17
2022-10-11T21:23:41.470Z,15.25
2022-10-11T21:26:11.250Z,16.27
2022-10-11T21:28:39.090Z,15.60
2022-10-11T21:31:10.873Z,17.98
2022-10-11T21:33:38.627Z,23.67
2022-10-11T21:36:24.945Z,20.98
2022-10-11T21:38:52.902Z,19.10
2022-10-11T21:41:22.281Z,18.02
2022-10-11T21:43:49.720Z,14.77
2022-10-11T21:46:23.785Z,16.45
2022-10-11T21:48:51.769Z,12.70
2022-10-11T21:51:27.246Z,19.17
2022-10-11T21:53:54.961Z,18.15
2022-10-11T21:56:22.066Z,14.35
2022-10-11T21:58:50.088Z,14.60
2022-10-11T22:01:18.018Z,12.10
2022-10-11T22:03:45.751Z,14.23
2022-10-11T22:06:12.767Z,10.18
2022-10-11T22:08:39.908Z,12.05
2022-10-11T22:11:08.011Z,16.27
2022-10-11T22:13:35.176Z,9.10
2022-10-11T22:16:07.046Z,9.90
2022-10-11T22:18:34.569Z,9.90
2022-10-11T22:21:13.067Z,12.73
2022-10-11T22:23:44.786Z,8.82
2022-10-11T22:26:16.371Z,11.33
2022-10-11T22:28:43.341Z,12.55
2022-10-11T22:31:10.521Z,12.57
2022-10-11T22:33:37.685Z,9.35
2022-10-11T22:36:10.415Z,8.60
2022-10-11T22:38:38.278Z,9.52
2022-10-11T22:41:06.617Z,14.38
2022-10-11T22:43:33.997Z,6.75
2022-10-11T22:46:00.968Z,10.50
2022-10-11T22:48:27.915Z,7.20
2022-10-11T22:50:54.596Z,8.85
2022-10-11T22:53:21.634Z,10.60
2022-10-11T22:55:48.442Z,10.32
2022-10-11T22:58:15.428Z,11.20
2022-10-11T23:00:42.376Z,8.80
2022-10-11T23:03:12.921Z,12.20
2022-10-11T23:05:39.657Z,9.00
2022-10-11T23:08:09.594Z,7.03
2022-10-11T23:10:40.209Z,7.78
2022-10-11T23:13:07.126Z,11.60
2022-10-11T23:15:33.837Z,5.55
2022-10-11T23:18:00.491Z,11.38
2022-10-11T23:20:27.247Z,10.50
2022-10-11T23:22:54.061Z,6.88
2022-10-11T23:25:21.010Z,7.88
2022-10-11T23:27:47.725Z,9.80
2022-10-11T23:30:14.520Z,8.40
2022-10-11T23:32:41.724Z,10.32
2022-10-11T23:35:08.760Z,10.45
2022-10-11T23:37:35.622Z,9.85
2022-10-11T23:40:02.988Z,10.15
2022-10-11T23:42:29.712Z,9.20
2022-10-11T23:44:56.731Z,10.85
2022-10-11T23:47:23.435Z,8.15
2022-10-11T23:49:50.196Z,9.35
2022-10-11T23:52:16.869Z,8.85
2022-10-11T23:54:43.470Z,12.90
2022-10-11T23:57:10.079Z,7.50
2022-10-11T23:59:36.696Z,8.40
